Time;durP1;ratioP1;P1;durP2;ratioP2;P2;SDS_P1;SDS_P2;PMS_P1;PMS_P2;Temp;Humidity;BMP_temperature;BMP_pressure;BME280_temperature;BME280_humidity;BME280_pressure;Samples;Min_cycle;Max_cycle;Signal;HPM_P1;HPM_P2
2022/01/15 00:00:07;;;;;;;3.47;1.50;;;-2.40;93.80;-2.90;95259.00;;;;4978956;28;87542;-57
2022/01/15 00:02:38;;;;;;;4.32;1.38;;;-2.40;93.50;-2.90;95251.00;;;;4976803;28;87547;-58
2022/01/15 00:05:05;;;;;;;2.97;1.30;;;-2.30;92.90;-2.90;95262.00;;;;4977640;28;87322;-58
2022/01/15 00:07:31;;;;;;;1.73;1.20;;;-2.30;92.50;-2.80;95267.00;;;;4980158;28;87168;-58
2022/01/15 00:09:57;;;;;;;2.58;1.30;;;-2.20;92.20;-2.80;95255.00;;;;4980286;28;86614;-59
2022/01/15 00:12:23;;;;;;;3.30;1.20;;;-2.20;91.40;-2.80;95268.00;;;;4977843;28;90190;-60
2022/01/15 00:14:50;;;;;;;2.92;1.25;;;-2.20;90.80;-2.70;95288.00;;;;4978928;28;88190;-60
2022/01/15 00:17:32;;;;;;;2.45;1.00;;;-2.10;90.30;-2.60;95311.00;;;;4976747;28;88635;-60
2022/01/15 00:20:05;;;;;;;2.75;1.17;;;-2.10;89.80;-2.70;95273.00;;;;4979183;28;87302;-59
2022/01/15 00:22:32;;;;;;;3.90;1.17;;;-2.10;89.20;-2.60;95269.00;;;;4977094;28;87679;-60
2022/01/15 00:24:58;;;;;;;3.42;0.93;;;-2.00;88.70;-2.60;95286.00;;;;4979567;28;87304;-60
2022/01/15 00:27:24;;;;;;;1.48;0.80;;;-2.00;86.30;-2.50;95299.00;;;;4979989;28;87305;-61
2022/01/15 00:29:50;;;;;;;3.20;0.82;;;-2.00;84.80;-2.50;95285.00;;;;4980137;28;87082;-60
2022/01/15 00:32:16;;;;;;;2.38;0.80;;;-1.90;84.10;-2.50;95280.00;;;;4978934;28;87978;-60
2022/01/15 00:34:42;;;;;;;3.20;0.95;;;-1.80;82.60;-2.40;95287.00;;;;4979785;28;88145;-60
2022/01/15 00:37:08;;;;;;;1.42;0.70;;;-1.80;81.70;-2.40;95282.00;;;;4979930;28;87310;-59
2022/01/15 00:39:34;;;;;;;3.10;0.90;;;-1.80;81.20;-2.40;95288.00;;;;4980052;28;87884;-60
2022/01/15 00:42:00;;;;;;;4.18;1.08;;;-1.80;81.20;-2.40;95283.00;;;;4960898;28;88650;-61
2022/01/15 00:44:27;;;;;;;2.40;0.90;;;-1.80;81.20;-2.40;95283.00;;;;4975762;28;89700;-60
2022/01/15 00:46:53;;;;;;;2.78;0.90;;;-1.90;82.00;-2.50;95281.00;;;;4978395;28;86942;-61
2022/01/15 00:49:19;;;;;;;2.97;0.98;;;-1.90;80.60;-2.50;95281.00;;;;4979296;28;87077;-60
2022/01/15 00:51:45;;;;;;;2.35;0.73;;;-1.90;80.70;-2.50;95283.00;;;;4977030;28;87765;-60
2022/01/15 00:54:11;;;;;;;3.58;1.10;;;-1.90;80.40;-2.40;95301.00;;;;4977634;28;88572;-60
2022/01/15 00:56:37;;;;;;;3.00;0.90;;;-1.80;80.40;-2.40;95300.00;;;;4979294;28;87498;-60
2022/01/15 00:59:04;;;;;;;9.60;1.10;;;-1.80;80.40;-2.40;95306.00;;;;4979280;28;86764;-60
2022/01/15 01:01:30;;;;;;;1.88;0.75;;;-1.80;81.20;-2.40;95300.00;;;;4979188;28;87653;-62
2022/01/15 01:03:56;;;;;;;3.85;0.98;;;-1.80;81.90;-2.40;95302.00;;;;4979038;28;87464;-60
2022/01/15 01:06:23;;;;;;;3.83;1.40;;;-1.90;82.90;-2.40;95307.00;;;;4978750;28;88723;-60
2022/01/15 01:08:49;;;;;;;3.47;0.98;;;-1.90;83.90;-2.50;95323.00;;;;4979141;28;87229;-60
2022/01/15 01:11:18;;;;;;;3.40;1.13;;;-2.00;85.00;-2.50;95306.00;;;;4979298;28;87764;-61
2022/01/15 01:22:43;;;;;;;2.95;1.20;;;-2.20;88.40;-2.80;95329.00;;;;4979123;28;87755;-60
2022/01/15 01:24:41;;;;;;;3.58;0.85;;;-2.20;89.20;-2.80;95320.00;;;;4978712;28;87301;-60
2022/01/15 01:27:40;;;;;;;5.75;1.02;;;-2.20;89.80;-2.80;95334.00;;;;4978987;28;87271;-61
2022/01/15 01:30:12;;;;;;;4.32;1.40;;;-2.30;90.10;-2.80;95321.00;;;;4979085;28;87553;-61
2022/01/15 01:35:12;;;;;;;4.05;1.10;;;-2.30;90.90;-2.90;95329.00;;;;4974968;28;88167;-60
2022/01/15 01:37:44;;;;;;;4.95;1.42;;;-2.30;91.30;-2.90;95320.00;;;;4977355;28;87173;-61
2022/01/15 01:40:19;;;;;;;3.78;1.30;;;-2.40;91.70;-2.90;95328.00;;;;4976846;28;87399;-60
2022/01/15 01:43:02;;;;;;;4.15;1.30;;;-2.40;91.90;-3.00;95310.00;;;;4975252;28;88262;-61
2022/01/15 01:45:30;;;;;;;4.57;1.45;;;-2.40;91.90;-3.00;95323.00;;;;4979479;28;87817;-61
2022/01/15 01:47:56;;;;;;;4.30;1.65;;;-2.30;92.10;-3.00;95325.00;;;;4982024;28;87284;-61
2022/01/15 01:50:25;;;;;;;5.30;1.40;;;-2.40;92.10;-2.90;95339.00;;;;4982302;28;86272;-62
2022/01/15 01:52:55;;;;;;;3.22;1.20;;;-2.30;91.60;-2.90;95347.00;;;;4981543;28;87732;-60
2022/01/15 01:55:24;;;;;;;2.42;1.20;;;-2.30;91.60;-2.90;95336.00;;;;4981578;28;87787;-61
2022/01/15 01:57:56;;;;;;;2.13;1.25;;;-2.30;91.40;-2.90;95341.00;;;;4981422;28;87886;-60
2022/01/15 02:00:25;;;;;;;1.98;1.00;;;-2.30;91.40;-2.80;95355.00;;;;4984023;28;87558;-60
2022/01/15 02:02:53;;;;;;;2.40;0.95;;;-2.30;91.40;-2.80;95360.00;;;;4981671;28;87595;-60
2022/01/15 02:05:20;;;;;;;3.50;1.60;;;-2.20;91.60;-2.80;95358.00;;;;4981766;28;87426;-60
2022/01/15 02:07:47;;;;;;;4.07;1.10;;;-2.30;91.60;-2.80;95351.00;;;;4980259;28;87358;-61
2022/01/15 02:10:18;;;;;;;3.92;1.42;;;-2.20;91.70;-2.80;95357.00;;;;4982215;28;87249;-61
2022/01/15 02:12:46;;;;;;;3.08;1.27;;;-2.20;91.70;-2.80;95356.00;;;;4982735;28;87739;-61
2022/01/15 02:15:21;;;;;;;2.97;1.40;;;-2.20;91.80;-2.80;95350.00;;;;4981806;28;87432;-60
2022/01/15 02:17:49;;;;;;;2.58;1.02;;;-2.30;92.00;-2.80;95355.00;;;;4977988;28;87516;-61
2022/01/15 02:25:56;;;;;;;2.97;1.20;;;-2.30;92.60;-2.80;95376.00;;;;4978052;28;88551;-61
2022/01/15 02:28:35;;;;;;;3.03;1.63;;;-2.20;92.90;-2.80;95357.00;;;;4981373;28;86961;-61
2022/01/15 02:31:05;;;;;;;2.50;1.30;;;-2.30;92.90;-2.80;95349.00;;;;4978098;28;87091;-60
2022/01/15 02:33:32;;;;;;;3.80;1.67;;;-2.30;92.90;-2.80;95360.00;;;;4981099;28;88173;-60
2022/01/15 02:35:59;;;;;;;3.35;1.70;;;-2.30;92.90;-2.80;95362.00;;;;4979882;28;87348;-60
2022/01/15 02:38:26;;;;;;;3.78;1.60;;;-2.30;92.90;-2.80;95371.00;;;;4978559;28;88164;-60
2022/01/15 02:40:53;;;;;;;5.20;1.77;;;-2.20;93.00;-2.80;95362.00;;;;4980430;28;86676;-60
2022/01/15 02:43:28;;;;;;;3.15;1.45;;;-2.30;92.90;-2.80;95365.00;;;;4980158;28;88539;-58
2022/01/15 02:45:58;;;;;;;4.57;2.00;;;-2.20;93.00;-2.70;95365.00;;;;4979783;28;87916;-57
2022/01/15 02:48:28;;;;;;;4.97;1.90;;;-2.20;93.10;-2.70;95368.00;;;;4979960;28;87939;-56
2022/01/15 02:50:56;;;;;;;2.75;2.00;;;-2.20;93.00;-2.70;95377.00;;;;4980194;28;87333;-59
2022/01/15 02:53:23;;;;;;;5.97;2.00;;;-2.20;93.00;-2.70;95373.00;;;;4981081;28;88106;-58
2022/01/15 02:55:53;;;;;;;7.10;2.30;;;-2.20;93.00;-2.70;95381.00;;;;4980364;28;87304;-55
2022/01/15 02:58:23;;;;;;;5.78;2.55;;;-2.20;93.30;-2.70;95367.00;;;;4979209;28;87196;-56
2022/01/15 03:00:51;;;;;;;3.50;2.05;;;-2.20;93.50;-2.70;95382.00;;;;4983048;28;87600;-60
2022/01/15 03:03:18;;;;;;;3.80;1.88;;;-2.20;93.00;-2.70;95372.00;;;;4979649;28;90592;-60
2022/01/15 03:05:44;;;;;;;3.55;1.85;;;-2.10;93.00;-2.70;95383.00;;;;4981300;28;87384;-60
2022/01/15 03:08:10;;;;;;;4.68;1.90;;;-2.10;93.00;-2.70;95367.00;;;;4980460;28;87054;-58
2022/01/15 03:10:36;;;;;;;3.78;1.90;;;-2.20;92.90;-2.70;95385.00;;;;4980000;28;87071;-55
2022/01/15 03:13:10;;;;;;;2.53;1.52;;;-2.10;93.00;-2.70;95392.00;;;;4979495;28;88605;-60
2022/01/15 03:15:36;;;;;;;3.95;1.90;;;-2.10;92.80;-2.60;95383.00;;;;4980451;28;88175;-60
2022/01/15 03:18:02;;;;;;;2.85;1.90;;;-2.10;92.90;-2.60;95385.00;;;;4979661;28;87293;-61
2022/01/15 03:20:28;;;;;;;3.17;1.88;;;-2.10;92.80;-2.60;95382.00;;;;4980486;28;86914;-60
2022/01/15 03:22:54;;;;;;;4.20;1.80;;;-2.10;92.60;-2.60;95384.00;;;;4978724;28;87812;-60
2022/01/15 03:25:21;;;;;;;2.70;1.58;;;-2.10;92.40;-2.60;95392.00;;;;4979222;28;88519;-59
2022/01/15 03:27:47;;;;;;;4.25;1.73;;;-2.00;92.50;-2.60;95394.00;;;;4979908;28;87500;-61
2022/01/15 03:30:14;;;;;;;3.88;1.63;;;-2.10;92.50;-2.60;95403.00;;;;4979961;28;86707;-59
2022/01/15 03:32:44;;;;;;;4.50;1.48;;;-2.10;92.70;-2.60;95408.00;;;;4978850;28;88779;-58
2022/01/15 03:35:16;;;;;;;2.45;1.40;;;-2.10;92.90;-2.60;95396.00;;;;4976974;28;87282;-56
2022/01/15 03:37:43;;;;;;;4.93;1.80;;;-2.10;93.00;-2.60;95415.00;;;;4977965;28;88377;-57
2022/01/15 03:40:13;;;;;;;5.05;1.75;;;-2.10;93.50;-2.70;95400.00;;;;4978129;28;87469;-58
2022/01/15 03:42:39;;;;;;;3.83;1.85;;;-2.10;93.60;-2.70;95401.00;;;;4976862;28;88705;-61
2022/01/15 03:45:06;;;;;;;2.33;1.23;;;-2.20;93.40;-2.70;95404.00;;;;4978017;28;87915;-60
2022/01/15 03:47:33;;;;;;;3.25;1.70;;;-2.10;93.40;-2.70;95408.00;;;;4977851;28;87349;-61
2022/01/15 03:49:59;;;;;;;2.58;1.40;;;-2.10;93.60;-2.70;95412.00;;;;4978539;28;87372;-61
2022/01/15 03:52:25;;;;;;;3.50;1.65;;;-2.20;93.60;-2.70;95408.00;;;;4978195;28;88126;-60
2022/01/15 03:54:51;;;;;;;2.58;1.50;;;-2.20;93.80;-2.70;95407.00;;;;4979088;28;87864;-55
2022/01/15 03:57:17;;;;;;;2.53;1.70;;;-2.20;93.60;-2.70;95413.00;;;;4978801;28;87583;-54
2022/01/15 03:59:43;;;;;;;2.08;1.20;;;-2.20;93.60;-2.70;95416.00;;;;4980157;28;87312;-58
2022/01/15 04:02:09;;;;;;;2.90;1.40;;;-2.10;93.50;-2.70;95426.00;;;;4977565;28;89160;-58
2022/01/15 04:04:36;;;;;;;4.30;1.65;;;-2.20;93.60;-2.70;95424.00;;;;4977496;28;90639;-57
2022/01/15 04:07:02;;;;;;;4.53;1.52;;;-2.20;93.60;-2.70;95415.00;;;;4976261;28;87112;-55
2022/01/15 04:09:28;;;;;;;3.13;1.40;;;-2.20;93.80;-2.70;95428.00;;;;4977896;28;87537;-58
2022/01/15 04:11:54;;;;;;;3.70;1.58;;;-2.10;93.30;-2.70;95424.00;;;;4977856;28;87668;-56
2022/01/15 04:14:20;;;;;;;3.45;1.30;;;-2.20;93.00;-2.70;95432.00;;;;4977944;28;87306;-56
2022/01/15 04:16:46;;;;;;;3.20;1.50;;;-2.10;93.00;-2.70;95431.00;;;;4975692;28;86967;-59
2022/01/15 04:19:12;;;;;;;2.80;1.23;;;-2.10;93.00;-2.70;95431.00;;;;4977385;28;86709;-60
2022/01/15 04:21:38;;;;;;;2.72;1.30;;;-2.10;93.00;-2.70;95435.00;;;;4978190;28;88086;-60
2022/01/15 04:24:05;;;;;;;2.22;1.20;;;-2.10;93.00;-2.70;95440.00;;;;4975599;28;87435;-61
2022/01/15 04:26:32;;;;;;;2.35;1.00;;;-2.10;93.00;-2.70;95447.00;;;;4977582;28;88012;-59
2022/01/15 04:29:06;;;;;;;3.30;1.33;;;-2.10;93.00;-2.70;95449.00;;;;4976994;28;87414;-62
2022/01/15 04:31:49;;;;;;;2.05;1.20;;;-2.10;93.00;-2.70;95452.00;;;;4923782;28;1516372;-61
2022/01/15 04:34:30;;;;;;;3.33;1.00;;;-2.10;93.00;-2.70;95468.00;;;;4978295;28;87385;-61
2022/01/15 04:37:14;;;;;;;2.35;1.13;;;-2.10;93.00;-2.70;95473.00;;;;4979647;28;87022;-56
2022/01/15 04:39:42;;;;;;;1.92;0.80;;;-2.10;93.00;-2.70;95465.00;;;;4979078;28;88258;-58
2022/01/15 04:42:09;;;;;;;3.05;1.25;;;-2.10;92.90;-2.70;95462.00;;;;4977644;28;87719;-57
2022/01/15 04:44:36;;;;;;;2.03;1.02;;;-2.10;92.70;-2.60;95494.00;;;;4978365;28;87387;-56
2022/01/15 04:47:03;;;;;;;1.05;0.80;;;-2.10;92.70;-2.70;95461.00;;;;4977846;28;87128;-58
2022/01/15 04:49:33;;;;;;;2.78;1.10;;;-2.10;92.30;-2.60;95487.00;;;;4978480;28;87148;-58
2022/01/15 04:52:00;;;;;;;1.65;0.90;;;-2.10;92.30;-2.70;95476.00;;;;4976922;28;91539;-55
2022/01/15 04:54:26;;;;;;;2.60;1.00;;;-2.10;92.50;-2.60;95495.00;;;;4976539;28;88295;-58
2022/01/15 04:56:53;;;;;;;4.65;1.00;;;-2.10;92.60;-2.70;95488.00;;;;4978298;28;87291;-58
2022/01/15 04:59:20;;;;;;;1.90;0.90;;;-2.10;92.60;-2.70;95488.00;;;;4980778;28;87143;-57
2022/01/15 05:01:47;;;;;;;2.53;1.10;;;-2.10;92.50;-2.70;95490.00;;;;4975636;28;88151;-58
2022/01/15 05:04:14;;;;;;;2.50;0.73;;;-2.10;92.70;-2.70;95511.00;;;;4978902;28;87325;-55
2022/01/15 05:06:40;;;;;;;2.90;1.05;;;-2.10;92.70;-2.70;95510.00;;;;4979185;28;87428;-58
2022/01/15 05:09:07;;;;;;;1.90;1.00;;;-2.10;92.80;-2.70;95513.00;;;;4976497;28;86277;-56
2022/01/15 05:14:13;;;;;;;1.55;1.20;;;-2.10;93.00;-2.70;95513.00;;;;4978183;28;87450;-56
2022/01/15 05:16:39;;;;;;;2.17;1.38;;;-2.10;93.00;-2.70;95528.00;;;;4978444;28;88443;-57
2022/01/15 05:19:06;;;;;;;1.90;1.10;;;-2.20;93.00;-2.70;95523.00;;;;4978383;28;87420;-56
2022/01/15 05:21:32;;;;;;;2.35;1.13;;;-2.10;93.20;-2.70;95529.00;;;;4976917;28;87654;-56
2022/01/15 05:23:59;;;;;;;2.08;1.25;;;-2.10;93.00;-2.70;95544.00;;;;4978443;28;87267;-59
2022/01/15 05:26:25;;;;;;;2.17;1.17;;;-2.10;93.50;-2.70;95544.00;;;;4978282;28;86974;-54
2022/01/15 05:28:51;;;;;;;2.28;1.10;;;-2.20;93.70;-2.70;95550.00;;;;4977344;28;87081;-54
2022/01/15 05:31:17;;;;;;;1.83;1.00;;;-2.10;93.50;-2.70;95543.00;;;;4977520;28;87645;-58
2022/01/15 05:33:43;;;;;;;3.10;1.27;;;-2.10;93.60;-2.70;95564.00;;;;4978793;28;87349;-62
2022/01/15 05:36:10;;;;;;;2.05;0.85;;;-2.10;93.40;-2.70;95585.00;;;;4977973;28;87002;-57
2022/01/15 05:38:36;;;;;;;3.70;1.10;;;-2.10;93.40;-2.70;95573.00;;;;4977191;28;88260;-59
2022/01/15 05:41:02;;;;;;;1.45;1.10;;;-2.10;93.40;-2.70;95577.00;;;;4976551;28;88589;-58
2022/01/15 05:43:28;;;;;;;1.90;1.10;;;-2.10;93.00;-2.60;95589.00;;;;4977370;28;88113;-56
2022/01/15 05:45:54;;;;;;;1.10;1.00;;;-2.10;92.80;-2.60;95603.00;;;;4976799;28;86905;-58
2022/01/15 05:48:20;;;;;;;3.10;1.02;;;-2.00;92.50;-2.60;95602.00;;;;4978024;28;87199;-57
2022/01/15 05:50:47;;;;;;;1.80;1.15;;;-2.00;92.60;-2.60;95596.00;;;;4975291;28;88734;-58
2022/01/15 05:53:13;;;;;;;2.30;1.20;;;-2.00;92.40;-2.60;95613.00;;;;4978169;28;87491;-57
2022/01/15 05:55:39;;;;;;;2.05;1.25;;;-2.00;92.40;-2.60;95597.00;;;;4978242;28;87594;-57
2022/01/15 05:58:07;;;;;;;2.67;1.00;;;-2.00;92.20;-2.60;95599.00;;;;4960698;28;86707;-57
2022/01/15 06:00:34;;;;;;;1.65;1.00;;;-2.00;92.10;-2.50;95598.00;;;;4978939;28;87667;-56
2022/01/15 06:03:01;;;;;;;2.50;1.58;;;-2.00;92.30;-2.50;95607.00;;;;4977379;28;87392;-58
2022/01/15 06:05:27;;;;;;;1.75;1.10;;;-2.00;92.40;-2.50;95607.00;;;;4974769;28;88382;-56
2022/01/15 06:07:54;;;;;;;3.88;1.30;;;-2.00;92.50;-2.50;95622.00;;;;4976863;28;87751;-53
2022/01/15 06:10:21;;;;;;;4.40;1.63;;;-2.00;92.40;-2.50;95616.00;;;;4977214;28;87287;-56
2022/01/15 06:12:47;;;;;;;1.75;1.10;;;-1.90;92.30;-2.50;95631.00;;;;4978548;28;87337;-57
2022/01/15 06:15:15;;;;;;;2.42;1.40;;;-1.90;92.40;-2.50;95635.00;;;;4977431;28;87019;-58
2022/01/15 06:17:43;;;;;;;2.63;0.93;;;-1.90;92.30;-2.50;95649.00;;;;4976785;28;87107;-57
2022/01/15 06:20:12;;;;;;;1.75;1.30;;;-1.90;92.50;-2.50;95645.00;;;;4977130;28;87632;-60
2022/01/15 06:22:38;;;;;;;2.17;1.17;;;-1.90;92.60;-2.50;95654.00;;;;4977934;28;86616;-58
2022/01/15 06:25:05;;;;;;;2.58;1.38;;;-1.90;92.90;-2.50;95656.00;;;;4978079;28;86981;-55
2022/01/15 06:27:32;;;;;;;2.45;1.30;;;-2.00;93.10;-2.50;95661.00;;;;4978184;28;86981;-57
2022/01/15 06:29:59;;;;;;;3.28;1.67;;;-2.00;93.10;-2.50;95662.00;;;;4977789;28;88734;-57
2022/01/15 06:32:28;;;;;;;2.13;1.23;;;-2.00;93.80;-2.60;95666.00;;;;4980510;28;88231;-58
2022/01/15 06:34:55;;;;;;;1.70;1.55;;;-2.00;93.70;-2.60;95678.00;;;;4980868;28;87494;-58
2022/01/15 06:37:21;;;;;;;1.70;1.25;;;-2.10;93.90;-2.50;95673.00;;;;4980954;28;87411;-58
2022/01/15 06:39:48;;;;;;;3.97;1.60;;;-2.00;94.20;-2.50;95677.00;;;;4978616;28;87782;-58
2022/01/15 06:42:14;;;;;;;2.05;1.45;;;-2.00;94.00;-2.50;95685.00;;;;4979795;28;88455;-58
2022/01/15 06:44:40;;;;;;;2.50;1.27;;;-2.00;93.90;-2.50;95696.00;;;;4979704;28;87090;-59
2022/01/15 06:47:07;;;;;;;2.78;1.40;;;-2.00;93.60;-2.50;95688.00;;;;4980117;28;86607;-59
2022/01/15 06:49:33;;;;;;;3.00;1.25;;;-2.00;93.70;-2.50;95684.00;;;;4980533;28;87812;-58
2022/01/15 06:52:00;;;;;;;1.70;1.27;;;-2.00;93.50;-2.40;95706.00;;;;4980671;28;87312;-58
2022/01/15 06:54:26;;;;;;;2.25;1.40;;;-1.90;93.60;-2.40;95690.00;;;;4980490;28;88100;-57
2022/01/15 06:56:52;;;;;;;1.85;1.40;;;-1.90;93.20;-2.50;95703.00;;;;4979496;28;87463;-57
2022/01/15 06:59:18;;;;;;;3.50;1.48;;;-1.90;93.40;-2.40;95703.00;;;;4981183;28;87719;-56
2022/01/15 07:01:44;;;;;;;3.17;1.50;;;-1.90;93.60;-2.50;95724.00;;;;4979111;28;88702;-57
2022/01/15 07:04:10;;;;;;;3.42;1.65;;;-1.90;93.70;-2.40;95732.00;;;;4980961;28;87469;-55
2022/01/15 07:06:36;;;;;;;2.15;1.67;;;-1.90;93.80;-2.40;95726.00;;;;4975231;28;88093;-57
2022/01/15 07:09:03;;;;;;;5.00;1.88;;;-1.90;93.90;-2.40;95726.00;;;;4980482;28;87498;-58
2022/01/15 07:11:29;;;;;;;3.00;1.50;;;-1.90;93.70;-2.40;95720.00;;;;4964782;28;88156;-58
2022/01/15 07:13:55;;;;;;;2.10;1.33;;;-1.80;93.70;-2.40;95733.00;;;;4980751;28;87126;-57
2022/01/15 07:16:21;;;;;;;2.20;1.50;;;-1.80;93.20;-2.40;95735.00;;;;4980236;28;87072;-58
2022/01/15 07:18:48;;;;;;;3.78;1.50;;;-1.80;93.10;-2.40;95730.00;;;;4977623;28;88650;-56
2022/01/15 07:21:14;;;;;;;4.35;1.83;;;-1.80;92.80;-2.30;95737.00;;;;4980102;28;87593;-58
2022/01/15 07:23:40;;;;;;;2.70;1.65;;;-1.70;92.60;-2.20;95747.00;;;;4980680;28;87260;-57
2022/01/15 07:26:06;;;;;;;1.85;1.25;;;-1.70;92.40;-2.20;95754.00;;;;4979798;28;87362;-57
2022/01/15 07:28:33;;;;;;;3.05;1.40;;;-1.70;92.00;-2.20;95734.00;;;;4980036;28;87461;-56
2022/01/15 07:30:59;;;;;;;3.55;1.58;;;-1.60;91.80;-2.10;95748.00;;;;4979942;28;87597;-58
2022/01/15 07:33:25;;;;;;;2.35;1.50;;;-1.60;91.80;-2.00;95753.00;;;;4979194;28;87251;-58
2022/01/15 07:35:52;;;;;;;6.25;1.38;;;-1.50;91.90;-2.10;95748.00;;;;4973638;28;86639;-58
2022/01/15 07:38:20;;;;;;;3.33;1.50;;;-1.50;91.40;-2.10;95757.00;;;;4978579;28;87731;-56
2022/01/15 07:40:47;;;;;;;2.83;1.50;;;-1.50;91.70;-2.10;95774.00;;;;4978880;28;87511;-59
2022/01/15 07:43:13;;;;;;;2.15;1.38;;;-1.60;91.80;-2.20;95779.00;;;;4977718;28;88225;-58
2022/01/15 07:45:40;;;;;;;2.10;1.42;;;-1.60;91.70;-2.10;95783.00;;;;4979232;28;87296;-57
2022/01/15 07:48:06;;;;;;;3.20;1.60;;;-1.60;91.50;-2.10;95773.00;;;;4978849;28;87800;-58
2022/01/15 07:50:32;;;;;;;2.83;1.65;;;-1.60;91.70;-2.10;95785.00;;;;4979714;28;87170;-60
2022/01/15 07:52:59;;;;;;;3.28;1.48;;;-1.60;91.80;-2.10;95784.00;;;;4980083;28;87453;-57
2022/01/15 07:55:26;;;;;;;2.72;1.27;;;-1.60;91.80;-2.20;95778.00;;;;4995501;28;87526;-58
2022/01/15 07:57:53;;;;;;;2.17;1.33;;;-1.60;92.00;-2.20;95806.00;;;;4979493;28;87613;-58
2022/01/15 08:00:20;;;;;;;4.20;1.35;;;-1.70;92.20;-2.20;95806.00;;;;4979804;28;87412;-58
2022/01/15 08:02:46;;;;;;;3.13;1.15;;;-1.70;92.40;-2.30;95788.00;;;;4979311;28;87320;-56
2022/01/15 08:05:12;;;;;;;3.38;1.70;;;-1.80;92.50;-2.30;95812.00;;;;4979537;28;87312;-57
2022/01/15 08:07:44;;;;;;;3.17;1.42;;;-1.80;92.90;-2.30;95815.00;;;;4978628;28;89313;-55
2022/01/15 08:10:11;;;;;;;3.20;1.50;;;-1.80;92.90;-2.30;95817.00;;;;4979381;28;88396;-57
2022/01/15 08:12:49;;;;;;;1.65;1.25;;;-1.70;92.70;-2.20;95822.00;;;;4979391;28;87414;-58
2022/01/15 08:15:17;;;;;;;1.85;1.45;;;-1.70;92.50;-2.20;95820.00;;;;4977971;28;87429;-60
2022/01/15 08:17:43;;;;;;;3.90;1.60;;;-1.70;92.60;-2.10;95816.00;;;;4979079;28;88296;-56
2022/01/15 08:20:10;;;;;;;3.03;1.85;;;-1.70;92.50;-2.20;95850.00;;;;4977897;28;87326;-57
2022/01/15 08:22:38;;;;;;;2.50;1.50;;;-1.70;92.70;-2.30;95838.00;;;;4970747;28;88373;-55
2022/01/15 08:25:05;;;;;;;1.98;1.55;;;-1.80;93.10;-2.30;95845.00;;;;4979758;28;86857;-56
2022/01/15 08:27:31;;;;;;;2.65;1.40;;;-1.80;93.10;-2.30;95874.00;;;;4978982;28;87726;-57
2022/01/15 08:29:57;;;;;;;3.17;1.70;;;-1.80;92.80;-2.20;95850.00;;;;4979082;28;87182;-59
2022/01/15 08:32:23;;;;;;;3.83;1.70;;;-1.70;93.00;-2.10;95857.00;;;;4977489;28;88372;-58
2022/01/15 08:34:49;;;;;;;4.65;1.50;;;-1.60;92.70;-2.20;95861.00;;;;4979201;28;87682;-58
2022/01/15 08:37:15;;;;;;;2.90;1.50;;;-1.60;91.80;-2.10;95861.00;;;;4978458;28;87790;-57
2022/01/15 08:39:42;;;;;;;2.75;1.38;;;-1.60;90.80;-2.10;95849.00;;;;4978365;28;87420;-58
2022/01/15 08:42:09;;;;;;;2.38;1.20;;;-1.50;90.40;-2.10;95866.00;;;;4975203;28;87408;-57
2022/01/15 08:44:40;;;;;;;1.83;1.30;;;-1.50;89.70;-2.10;95889.00;;;;4977669;28;87510;-54
2022/01/15 08:47:06;;;;;;;1.98;1.25;;;-1.50;88.50;-2.00;95868.00;;;;4978419;28;87654;-56
2022/01/15 08:49:33;;;;;;;2.47;1.30;;;-1.50;88.60;-1.90;95880.00;;;;4978679;28;89462;-58
2022/01/15 08:51:59;;;;;;;2.15;1.40;;;-1.40;87.80;-1.90;95913.00;;;;4978979;28;87048;-58
2022/01/15 08:54:25;;;;;;;3.15;1.40;;;-1.40;86.90;-1.80;95867.00;;;;4977300;28;87631;-55
2022/01/15 08:56:51;;;;;;;3.80;1.65;;;-1.30;87.20;-1.70;95897.00;;;;4978150;28;88527;-57
2022/01/15 08:59:18;;;;;;;2.67;1.60;;;-1.30;87.10;-1.70;95871.00;;;;4978661;28;88550;-57
2022/01/15 09:01:45;;;;;;;3.22;1.85;;;-1.30;87.10;-1.80;95890.00;;;;4978629;28;87348;-58
2022/01/15 09:04:11;;;;;;;3.05;1.70;;;-1.30;87.10;-1.90;95877.00;;;;4979152;28;87634;-54
2022/01/15 09:06:43;;;;;;;2.63;1.60;;;-1.30;87.10;-1.90;95903.00;;;;4978666;28;87528;-59
2022/01/15 09:09:09;;;;;;;;;;;-1.40;86.90;-1.90;95938.00;;;;4976604;28;87459;-59
2022/01/15 09:11:35;;;;;;;2.13;1.40;;;-1.40;87.60;-1.90;95900.00;;;;4979884;28;87388;-55
2022/01/15 09:14:01;;;;;;;2.58;1.40;;;-1.40;87.80;-1.90;95913.00;;;;4979178;28;86410;-57
2022/01/15 09:16:28;;;;;;;3.17;1.48;;;-1.40;88.20;-1.90;95897.00;;;;4975106;28;87921;-57
2022/01/15 09:18:56;;;;;;;2.28;1.42;;;-1.40;88.10;-1.80;95924.00;;;;4978700;28;87603;-58
2022/01/15 09:21:24;;;;;;;3.22;1.60;;;-1.30;88.70;-1.80;95918.00;;;;4976805;28;87959;-58
2022/01/15 09:23:51;;;;;;;2.33;1.65;;;-1.30;89.10;-1.80;95915.00;;;;4978601;28;87356;-57
2022/01/15 09:26:45;;;;;;;3.05;1.45;;;-1.30;88.90;-1.80;95916.00;;;;4978000;28;87752;-59
2022/01/15 09:31:51;;;;;;;3.03;1.52;;;-1.40;88.90;-1.80;95941.00;;;;4976605;28;87554;-57
2022/01/15 09:34:17;;;;;;;1.75;1.40;;;-1.30;89.80;-1.90;95945.00;;;;4978909;28;87411;-58
2022/01/15 09:36:43;;;;;;;4.18;1.95;;;-1.40;89.50;-2.00;95955.00;;;;4977100;28;88223;-57
2022/01/15 09:39:10;;;;;;;2.92;1.77;;;-1.50;90.20;-2.00;95938.00;;;;4977835;28;87348;-57
2022/01/15 09:41:43;;;;;;;2.88;1.65;;;-1.50;90.50;-2.00;95933.00;;;;4977816;28;87079;-57
2022/01/15 09:44:10;;;;;;;3.45;1.50;;;-1.40;90.90;-2.00;95955.00;;;;4977502;28;87337;-58
2022/01/15 09:46:37;;;;;;;1.92;1.63;;;-1.50;90.90;-2.00;95949.00;;;;4959904;28;89595;-58
2022/01/15 09:49:04;;;;;;;1.90;1.50;;;-1.50;91.00;-1.90;95941.00;;;;4977462;28;90038;-58
2022/01/15 09:51:30;;;;;;;8.35;1.65;;;-1.40;90.50;-1.80;95952.00;;;;4976877;28;87026;-58
2022/01/15 09:53:58;;;;;;;4.75;1.88;;;-1.40;90.30;-1.70;95960.00;;;;4978507;28;87479;-57
2022/01/15 09:56:24;;;;;;;4.22;2.15;;;-1.20;89.70;-1.70;95980.00;;;;4975107;28;88271;-57
2022/01/15 09:58:52;;;;;;;5.28;2.00;;;-1.30;89.20;-1.80;95964.00;;;;4977632;28;87213;-56
2022/01/15 10:01:18;;;;;;;2.58;1.55;;;-1.30;89.00;-1.80;95982.00;;;;4978324;28;87581;-57
2022/01/15 10:03:44;;;;;;;3.88;2.03;;;-1.30;88.20;-1.80;95973.00;;;;4977278;28;86786;-57
2022/01/15 10:06:10;;;;;;;3.30;1.80;;;-1.30;88.40;-1.90;95980.00;;;;4979843;28;88618;-59
2022/01/15 10:08:37;;;;;;;4.15;2.03;;;-1.40;88.20;-1.80;95994.00;;;;4981407;28;87404;-55
2022/01/15 10:11:11;;;;;;;4.03;1.90;;;-1.30;88.30;-1.80;96005.00;;;;4981115;28;88370;-57
2022/01/15 10:13:48;;;;;;;4.40;1.90;;;-1.20;87.20;-1.70;95994.00;;;;4981623;28;87684;-57
2022/01/15 10:16:17;;;;;;;2.80;1.60;;;-1.30;87.10;-1.80;95997.00;;;;4980673;28;87865;-57
2022/01/15 10:18:47;;;;;;;3.33;1.95;;;-1.20;87.10;-1.80;96018.00;;;;4980754;28;87587;-57
2022/01/15 10:21:15;;;;;;;4.00;1.77;;;-1.30;87.10;-1.80;96021.00;;;;4978981;28;87258;-58
2022/01/15 10:23:52;;;;;;;3.60;1.17;;;-1.30;87.10;-1.90;96035.00;;;;4980126;28;87067;-56
2022/01/15 10:26:28;;;;;;;4.10;1.55;;;-1.30;87.10;-1.90;95999.00;;;;4980930;28;87718;-54
2022/01/15 10:29:02;;;;;;;5.45;1.80;;;-1.40;88.10;-2.00;96025.00;;;;4980020;28;87354;-54
2022/01/15 10:31:38;;;;;;;3.40;1.77;;;-1.50;88.50;-2.00;96019.00;;;;4977962;28;87152;-57
2022/01/15 10:34:31;;;;;;;6.28;2.28;;;-1.50;88.20;-2.10;96033.00;;;;4981673;28;87110;-57
2022/01/15 10:37:12;;;;;;;5.75;2.20;;;-1.50;89.20;-2.10;96034.00;;;;4979156;28;89477;-56
2022/01/15 10:39:39;;;;;;;4.33;2.13;;;-1.50;88.80;-2.00;96039.00;;;;4978978;28;89330;-58
2022/01/15 10:42:19;;;;;;;4.50;1.83;;;-1.50;87.90;-1.90;96025.00;;;;4979506;28;87387;-57
2022/01/15 10:44:47;;;;;;;4.30;1.52;;;-1.40;86.90;-1.90;96064.00;;;;4979597;28;87735;-57
2022/01/15 10:47:16;;;;;;;3.70;1.83;;;-1.40;86.30;-1.80;96061.00;;;;4981038;28;88605;-56
2022/01/15 10:49:43;;;;;;;4.43;1.60;;;-1.30;85.90;-1.80;96062.00;;;;4980458;28;87251;-57
2022/01/15 10:52:22;;;;;;;3.75;1.50;;;-1.30;85.40;-1.80;96061.00;;;;4980350;28;87402;-57
2022/01/15 10:55:08;;;;;;;3.08;1.48;;;-1.40;84.60;-1.80;96069.00;;;;4978659;28;86257;-55
2022/01/15 10:58:05;;;;;;;2.03;1.10;;;-1.40;84.80;-1.90;96062.00;;;;4979282;28;87188;-57
2022/01/15 11:00:51;;;;;;;4.43;1.27;;;-1.40;84.70;-1.90;96079.00;;;;4979562;28;87703;-56
2022/01/15 11:03:17;;;;;;;5.32;1.52;;;-1.40;84.80;-1.90;96101.00;;;;4978910;28;88446;-58
2022/01/15 11:05:46;;;;;;;5.85;1.42;;;-1.30;85.00;-2.00;96102.00;;;;4981287;28;87075;-57
2022/01/15 11:08:27;;;;;;;3.60;1.55;;;-1.40;85.50;-2.00;96088.00;;;;4979522;28;88220;-57
2022/01/15 11:11:03;;;;;;;2.58;1.33;;;-1.50;86.60;-2.10;96108.00;;;;4979032;28;87412;-57
2022/01/15 11:13:33;;;;;;;2.42;1.33;;;-1.50;86.80;-2.10;96160.00;;;;4980691;28;87092;-57
2022/01/15 11:16:08;;;;;;;4.15;1.38;;;-1.60;87.50;-2.20;96123.00;;;;4979902;28;87109;-59
2022/01/15 11:18:37;;;;;;;4.00;1.75;;;-1.60;88.20;-2.20;96157.00;;;;4980445;28;87544;-56
2022/01/15 11:21:13;;;;;;;3.22;1.42;;;-1.70;90.40;-2.40;96128.00;;;;4980844;28;87211;-58